sensor_id;sensor_type;location;lat;lon;timestamp;P1;durP1;ratioP1;P2;durP2;ratioP2
72647;SDS011;60693;50.002;8.644;2024-03-23T00:52:45;10.55;;;4.15;;
72647;SDS011;60693;50.002;8.644;2024-03-23T00:55:30;11.05;;;3.33;;
72647;SDS011;60693;50.002;8.644;2024-03-23T00:58:14;11.93;;;3.63;;
72647;SDS011;60693;50.002;8.644;2024-03-23T01:00:59;8.93;;;3.50;;
72647;SDS011;60693;50.002;8.644;2024-03-23T01:03:43;14.35;;;3.38;;
72647;SDS011;60693;50.002;8.644;2024-03-23T01:06:28;12.57;;;3.72;;
72647;SDS011;60693;50.002;8.644;2024-03-23T01:09:12;10.80;;;3.40;;
72647;SDS011;60693;50.002;8.644;2024-03-23T01:11:57;9.60;;;3.47;;
72647;SDS011;60693;50.002;8.644;2024-03-23T01:14:41;11.40;;;3.95;;
72647;SDS011;60693;50.002;8.644;2024-03-23T01:17:26;16.00;;;4.50;;
72647;SDS011;60693;50.002;8.644;2024-03-23T01:20:10;10.60;;;4.25;;
72647;SDS011;60693;50.002;8.644;2024-03-23T01:22:55;11.35;;;4.25;;
72647;SDS011;60693;50.002;8.644;2024-03-23T01:25:40;10.38;;;2.97;;
72647;SDS011;60693;50.002;8.644;2024-03-23T01:28:24;9.18;;;2.83;;
72647;SDS011;60693;50.002;8.644;2024-03-23T01:31:08;7.95;;;2.58;;
72647;SDS011;60693;50.002;8.644;2024-03-23T01:33:53;7.65;;;2.03;;
72647;SDS011;60693;50.002;8.644;2024-03-23T01:36:37;6.10;;;1.50;;
72647;SDS011;60693;50.002;8.644;2024-03-23T01:39:21;6.50;;;1.70;;
72647;SDS011;60693;50.002;8.644;2024-03-23T01:42:06;5.70;;;1.63;;
72647;SDS011;60693;50.002;8.644;2024-03-23T01:44:50;6.18;;;1.70;;
72647;SDS011;60693;50.002;8.644;2024-03-23T01:47:35;6.93;;;1.80;;
72647;SDS011;60693;50.002;8.644;2024-03-23T01:50:19;11.00;;;2.53;;
72647;SDS011;60693;50.002;8.644;2024-03-23T01:53:03;10.32;;;2.03;;
72647;SDS011;60693;50.002;8.644;2024-03-23T01:55:49;7.88;;;2.30;;
72647;SDS011;60693;50.002;8.644;2024-03-23T01:58:34;10.20;;;2.92;;
72647;SDS011;60693;50.002;8.644;2024-03-23T02:01:19;11.23;;;3.22;;
72647;SDS011;60693;50.002;8.644;2024-03-23T02:04:03;13.20;;;3.90;;
72647;SDS011;60693;50.002;8.644;2024-03-23T02:06:48;8.80;;;3.10;;
72647;SDS011;60693;50.002;8.644;2024-03-23T02:09:31;11.82;;;4.20;;
72647;SDS011;60693;50.002;8.644;2024-03-23T02:12:16;10.60;;;3.85;;
72647;SDS011;60693;50.002;8.644;2024-03-23T02:15:00;10.27;;;3.42;;
72647;SDS011;60693;50.002;8.644;2024-03-23T02:17:45;14.15;;;3.47;;
72647;SDS011;60693;50.002;8.644;2024-03-23T02:20:29;13.20;;;4.15;;
72647;SDS011;60693;50.002;8.644;2024-03-23T02:23:14;13.07;;;4.07;;
72647;SDS011;60693;50.002;8.644;2024-03-23T02:25:58;14.02;;;4.25;;
72647;SDS011;60693;50.002;8.644;2024-03-23T02:28:43;10.77;;;4.10;;
72647;SDS011;60693;50.002;8.644;2024-03-23T02:31:27;13.50;;;4.57;;
72647;SDS011;60693;50.002;8.644;2024-03-23T02:34:11;12.65;;;4.32;;
72647;SDS011;60693;50.002;8.644;2024-03-23T02:36:55;12.55;;;4.10;;
72647;SDS011;60693;50.002;8.644;2024-03-23T02:39:40;13.73;;;4.97;;
72647;SDS011;60693;50.002;8.644;2024-03-23T02:42:24;17.45;;;4.93;;
72647;SDS011;60693;50.002;8.644;2024-03-23T02:45:08;15.55;;;4.95;;
72647;SDS011;60693;50.002;8.644;2024-03-23T02:47:52;14.05;;;5.63;;
72647;SDS011;60693;50.002;8.644;2024-03-23T02:50:37;11.85;;;4.18;;
72647;SDS011;60693;50.002;8.644;2024-03-23T02:53:21;10.40;;;3.05;;
72647;SDS011;60693;50.002;8.644;2024-03-23T02:56:06;11.00;;;3.80;;
72647;SDS011;60693;50.002;8.644;2024-03-23T02:58:50;7.80;;;2.38;;
72647;SDS011;60693;50.002;8.644;2024-03-23T03:01:35;8.77;;;2.40;;
72647;SDS011;60693;50.002;8.644;2024-03-23T03:04:19;12.85;;;3.88;;
72647;SDS011;60693;50.002;8.644;2024-03-23T03:07:04;9.23;;;3.70;;
72647;SDS011;60693;50.002;8.644;2024-03-23T03:09:48;8.52;;;2.83;;
72647;SDS011;60693;50.002;8.644;2024-03-23T03:12:32;13.05;;;4.20;;
72647;SDS011;60693;50.002;8.644;2024-03-23T03:15:16;11.35;;;4.20;;
72647;SDS011;60693;50.002;8.644;2024-03-23T03:18:01;15.13;;;5.20;;
72647;SDS011;60693;50.002;8.644;2024-03-23T03:20:45;13.35;;;5.07;;
72647;SDS011;60693;50.002;8.644;2024-03-23T03:23:29;13.25;;;5.20;;
72647;SDS011;60693;50.002;8.644;2024-03-23T03:26:13;17.33;;;5.68;;
72647;SDS011;60693;50.002;8.644;2024-03-23T03:28:57;13.38;;;5.88;;
72647;SDS011;60693;50.002;8.644;2024-03-23T03:31:42;13.93;;;4.72;;
72647;SDS011;60693;50.002;8.644;2024-03-23T03:34:26;18.08;;;4.78;;
72647;SDS011;60693;50.002;8.644;2024-03-23T03:37:10;14.68;;;6.00;;
72647;SDS011;60693;50.002;8.644;2024-03-23T03:39:56;13.73;;;5.50;;
72647;SDS011;60693;50.002;8.644;2024-03-23T03:42:40;15.00;;;6.05;;
72647;SDS011;60693;50.002;8.644;2024-03-23T03:45:25;20.23;;;7.10;;
72647;SDS011;60693;50.002;8.644;2024-03-23T03:48:09;14.18;;;5.00;;
72647;SDS011;60693;50.002;8.644;2024-03-23T03:50:54;13.00;;;5.05;;
72647;SDS011;60693;50.002;8.644;2024-03-23T03:53:39;14.75;;;4.50;;
72647;SDS011;60693;50.002;8.644;2024-03-23T03:56:23;13.75;;;4.60;;
72647;SDS011;60693;50.002;8.644;2024-03-23T03:59:07;11.20;;;4.07;;
72647;SDS011;60693;50.002;8.644;2024-03-23T04:01:51;13.40;;;4.82;;
72647;SDS011;60693;50.002;8.644;2024-03-23T04:04:35;15.77;;;5.03;;
72647;SDS011;60693;50.002;8.644;2024-03-23T04:07:20;15.20;;;6.07;;
72647;SDS011;60693;50.002;8.644;2024-03-23T04:10:06;20.05;;;5.65;;
72647;SDS011;60693;50.002;8.644;2024-03-23T04:12:51;18.60;;;5.50;;
72647;SDS011;60693;50.002;8.644;2024-03-23T04:15:36;15.85;;;4.97;;
72647;SDS011;60693;50.002;8.644;2024-03-23T04:18:20;13.85;;;5.10;;
72647;SDS011;60693;50.002;8.644;2024-03-23T04:21:05;16.48;;;5.15;;
72647;SDS011;60693;50.002;8.644;2024-03-23T04:23:50;15.68;;;5.35;;
72647;SDS011;60693;50.002;8.644;2024-03-23T04:26:40;13.82;;;4.35;;
72647;SDS011;60693;50.002;8.644;2024-03-23T04:29:28;15.15;;;5.50;;
72647;SDS011;60693;50.002;8.644;2024-03-23T04:32:12;15.07;;;5.30;;
72647;SDS011;60693;50.002;8.644;2024-03-23T04:34:58;11.65;;;3.22;;
72647;SDS011;60693;50.002;8.644;2024-03-23T04:37:41;5.75;;;1.00;;
72647;SDS011;60693;50.002;8.644;2024-03-23T04:40:26;2.30;;;0.40;;
72647;SDS011;60693;50.002;8.644;2024-03-23T04:43:10;2.60;;;0.60;;
72647;SDS011;60693;50.002;8.644;2024-03-23T04:45:55;2.25;;;0.47;;
72647;SDS011;60693;50.002;8.644;2024-03-23T04:48:39;2.17;;;0.50;;
72647;SDS011;60693;50.002;8.644;2024-03-23T04:51:23;2.08;;;0.35;;
72647;SDS011;60693;50.002;8.644;2024-03-23T04:54:07;1.70;;;0.30;;
72647;SDS011;60693;50.002;8.644;2024-03-23T04:56:52;1.00;;;0.20;;
72647;SDS011;60693;50.002;8.644;2024-03-23T04:59:36;1.23;;;0.25;;
72647;SDS011;60693;50.002;8.644;2024-03-23T05:02:20;2.90;;;0.50;;
72647;SDS011;60693;50.002;8.644;2024-03-23T05:05:04;2.20;;;0.28;;
72647;SDS011;60693;50.002;8.644;2024-03-23T05:07:51;1.50;;;0.30;;
72647;SDS011;60693;50.002;8.644;2024-03-23T05:10:35;2.47;;;0.40;;
72647;SDS011;60693;50.002;8.644;2024-03-23T05:13:19;1.55;;;0.28;;
72647;SDS011;60693;50.002;8.644;2024-03-23T05:16:03;1.80;;;0.27;;
72647;SDS011;60693;50.002;8.644;2024-03-23T05:18:48;1.48;;;0.25;;
72647;SDS011;60693;50.002;8.644;2024-03-23T05:21:32;2.38;;;0.40;;
72647;SDS011;60693;50.002;8.644;2024-03-23T05:24:17;1.73;;;0.40;;
72647;SDS011;60693;50.002;8.644;2024-03-23T05:27:01;1.50;;;0.20;;
72647;SDS011;60693;50.002;8.644;2024-03-23T05:29:46;1.30;;;0.23;;
72647;SDS011;60693;50.002;8.644;2024-03-23T05:32:31;1.48;;;0.30;;
72647;SDS011;60693;50.002;8.644;2024-03-23T05:35:16;1.98;;;0.47;;
72647;SDS011;60693;50.002;8.644;2024-03-23T05:38:00;2.65;;;0.52;;
72647;SDS011;60693;50.002;8.644;2024-03-23T05:40:52;2.20;;;0.40;;
72647;SDS011;60693;50.002;8.644;2024-03-23T05:43:37;2.30;;;0.40;;
72647;SDS011;60693;50.002;8.644;2024-03-23T05:46:21;1.98;;;0.30;;
72647;SDS011;60693;50.002;8.644;2024-03-23T05:49:05;2.15;;;0.30;;
72647;SDS011;60693;50.002;8.644;2024-03-23T05:51:50;2.55;;;0.35;;
72647;SDS011;60693;50.002;8.644;2024-03-23T05:54:35;2.60;;;0.47;;
72647;SDS011;60693;50.002;8.644;2024-03-23T05:57:19;2.20;;;0.43;;
72647;SDS011;60693;50.002;8.644;2024-03-23T06:00:03;2.63;;;0.32;;
72647;SDS011;60693;50.002;8.644;2024-03-23T06:02:48;3.63;;;0.50;;
72647;SDS011;60693;50.002;8.644;2024-03-23T06:05:32;2.28;;;0.50;;
72647;SDS011;60693;50.002;8.644;2024-03-23T06:08:17;4.20;;;0.38;;
72647;SDS011;60693;50.002;8.644;2024-03-23T06:11:01;2.10;;;0.40;;
72647;SDS011;60693;50.002;8.644;2024-03-23T06:13:45;2.55;;;0.40;;
72647;SDS011;60693;50.002;8.644;2024-03-23T06:16:29;2.65;;;0.40;;
72647;SDS011;60693;50.002;8.644;2024-03-23T06:19:14;1.38;;;0.30;;
72647;SDS011;60693;50.002;8.644;2024-03-23T06:21:58;1.00;;;0.20;;
72647;SDS011;60693;50.002;8.644;2024-03-23T06:24:42;1.83;;;0.30;;
72647;SDS011;60693;50.002;8.644;2024-03-23T06:27:28;1.10;;;0.30;;
72647;SDS011;60693;50.002;8.644;2024-03-23T06:30:13;1.00;;;0.20;;
72647;SDS011;60693;50.002;8.644;2024-03-23T06:32:57;1.13;;;0.20;;
72647;SDS011;60693;50.002;8.644;2024-03-23T06:35:42;1.45;;;0.20;;
72647;SDS011;60693;50.002;8.644;2024-03-23T06:38:26;1.37;;;0.30;;
72647;SDS011;60693;50.002;8.644;2024-03-23T06:41:10;0.90;;;0.20;;
72647;SDS011;60693;50.002;8.644;2024-03-23T06:43:55;1.45;;;0.30;;
72647;SDS011;60693;50.002;8.644;2024-03-23T06:46:40;1.88;;;0.20;;
72647;SDS011;60693;50.002;8.644;2024-03-23T06:49:24;1.73;;;0.40;;
72647;SDS011;60693;50.002;8.644;2024-03-23T06:52:08;1.73;;;0.30;;
72647;SDS011;60693;50.002;8.644;2024-03-23T06:54:55;1.05;;;0.25;;
72647;SDS011;60693;50.002;8.644;2024-03-23T06:57:39;1.30;;;0.30;;
72647;SDS011;60693;50.002;8.644;2024-03-23T07:00:24;1.48;;;0.30;;
72647;SDS011;60693;50.002;8.644;2024-03-23T07:03:09;2.25;;;0.40;;
72647;SDS011;60693;50.002;8.644;2024-03-23T07:05:57;2.13;;;0.33;;
72647;SDS011;60693;50.002;8.644;2024-03-23T07:08:42;2.05;;;0.30;;
72647;SDS011;60693;50.002;8.644;2024-03-23T07:11:26;1.50;;;0.30;;
72647;SDS011;60693;50.002;8.644;2024-03-23T07:14:10;2.13;;;0.30;;
72647;SDS011;60693;50.002;8.644;2024-03-23T07:16:56;1.05;;;0.20;;
72647;SDS011;60693;50.002;8.644;2024-03-23T07:19:40;1.20;;;0.23;;
72647;SDS011;60693;50.002;8.644;2024-03-23T07:22:25;7.00;;;0.60;;
72647;SDS011;60693;50.002;8.644;2024-03-23T07:25:10;2.00;;;0.52;;
72647;SDS011;60693;50.002;8.644;2024-03-23T07:27:55;3.38;;;0.85;;
72647;SDS011;60693;50.002;8.644;2024-03-23T07:30:39;2.13;;;0.30;;
72647;SDS011;60693;50.002;8.644;2024-03-23T07:33:24;6.33;;;0.47;;
72647;SDS011;60693;50.002;8.644;2024-03-23T07:36:08;1.88;;;0.30;;
72647;SDS011;60693;50.002;8.644;2024-03-23T07:38:52;1.70;;;0.25;;
72647;SDS011;60693;50.002;8.644;2024-03-23T07:41:37;2.75;;;0.50;;
72647;SDS011;60693;50.002;8.644;2024-03-23T07:44:21;1.65;;;0.40;;
72647;SDS011;60693;50.002;8.644;2024-03-23T07:47:06;2.85;;;0.43;;
72647;SDS011;60693;50.002;8.644;2024-03-23T07:49:51;1.63;;;0.40;;
72647;SDS011;60693;50.002;8.644;2024-03-23T07:52:34;2.35;;;0.50;;
72647;SDS011;60693;50.002;8.644;2024-03-23T07:55:18;2.35;;;0.43;;
72647;SDS011;60693;50.002;8.644;2024-03-23T07:58:03;1.83;;;0.35;;
72647;SDS011;60693;50.002;8.644;2024-03-23T08:00:47;3.83;;;1.00;;
72647;SDS011;60693;50.002;8.644;2024-03-23T08:03:32;5.85;;;1.30;;
72647;SDS011;60693;50.002;8.644;2024-03-23T08:06:16;5.60;;;0.57;;
72647;SDS011;60693;50.002;8.644;2024-03-23T08:09:02;4.80;;;0.88;;
72647;SDS011;60693;50.002;8.644;2024-03-23T08:11:46;4.55;;;0.80;;
72647;SDS011;60693;50.002;8.644;2024-03-23T08:14:30;8.35;;;0.98;;
72647;SDS011;60693;50.002;8.644;2024-03-23T08:17:14;3.70;;;0.73;;
72647;SDS011;60693;50.002;8.644;2024-03-23T08:19:59;5.13;;;0.75;;
72647;SDS011;60693;50.002;8.644;2024-03-23T08:22:43;6.15;;;0.77;;
72647;SDS011;60693;50.002;8.644;2024-03-23T08:25:30;5.72;;;1.15;;
72647;SDS011;60693;50.002;8.644;2024-03-23T08:28:15;5.80;;;1.30;;
72647;SDS011;60693;50.002;8.644;2024-03-23T08:31:12;3.83;;;0.75;;
72647;SDS011;60693;50.002;8.644;2024-03-23T08:33:56;5.88;;;1.13;;
72647;SDS011;60693;50.002;8.644;2024-03-23T08:36:41;5.35;;;0.93;;
72647;SDS011;60693;50.002;8.644;2024-03-23T08:39:25;14.68;;;3.90;;
72647;SDS011;60693;50.002;8.644;2024-03-23T08:42:10;5.35;;;1.23;;
72647;SDS011;60693;50.002;8.644;2024-03-23T08:44:54;6.03;;;1.52;;
72647;SDS011;60693;50.002;8.644;2024-03-23T08:47:39;7.22;;;1.35;;
72647;SDS011;60693;50.002;8.644;2024-03-23T08:50:23;9.40;;;1.35;;
72647;SDS011;60693;50.002;8.644;2024-03-23T08:53:08;5.38;;;1.00;;
72647;SDS011;60693;50.002;8.644;2024-03-23T08:55:53;6.35;;;1.15;;
72647;SDS011;60693;50.002;8.644;2024-03-23T08:58:38;7.03;;;1.63;;
72647;SDS011;60693;50.002;8.644;2024-03-23T09:01:22;3.25;;;0.57;;
72647;SDS011;60693;50.002;8.644;2024-03-23T09:04:08;5.60;;;1.05;;
72647;SDS011;60693;50.002;8.644;2024-03-23T09:06:52;4.13;;;0.90;;
72647;SDS011;60693;50.002;8.644;2024-03-23T09:09:40;6.60;;;1.10;;
72647;SDS011;60693;50.002;8.644;2024-03-23T09:12:24;6.13;;;1.20;;
72647;SDS011;60693;50.002;8.644;2024-03-23T09:15:08;5.60;;;0.93;;
72647;SDS011;60693;50.002;8.644;2024-03-23T09:17:52;9.05;;;1.45;;
72647;SDS011;60693;50.002;8.644;2024-03-23T09:20:37;5.30;;;1.50;;
72647;SDS011;60693;50.002;8.644;2024-03-23T09:23:21;6.15;;;1.52;;
72647;SDS011;60693;50.002;8.644;2024-03-23T09:26:06;7.25;;;1.20;;
72647;SDS011;60693;50.002;8.644;2024-03-23T09:28:53;5.93;;;1.42;;
72647;SDS011;60693;50.002;8.644;2024-03-23T09:31:39;4.57;;;1.05;;
72647;SDS011;60693;50.002;8.644;2024-03-23T09:34:24;4.97;;;0.77;;
72647;SDS011;60693;50.002;8.644;2024-03-23T09:37:09;9.95;;;1.00;;
72647;SDS011;60693;50.002;8.644;2024-03-23T09:39:53;8.43;;;0.90;;
72647;SDS011;60693;50.002;8.644;2024-03-23T09:42:37;7.63;;;1.40;;
72647;SDS011;60693;50.002;8.644;2024-03-23T09:45:26;3.95;;;0.73;;
72647;SDS011;60693;50.002;8.644;2024-03-23T09:48:12;5.13;;;1.00;;
72647;SDS011;60693;50.002;8.644;2024-03-23T09:50:57;10.98;;;1.08;;
72647;SDS011;60693;50.002;8.644;2024-03-23T09:53:41;9.05;;;1.17;;
72647;SDS011;60693;50.002;8.644;2024-03-23T09:56:25;6.35;;;1.23;;
72647;SDS011;60693;50.002;8.644;2024-03-23T09:59:10;7.97;;;1.65;;
72647;SDS011;60693;50.002;8.644;2024-03-23T10:01:54;9.95;;;1.13;;
72647;SDS011;60693;50.002;8.644;2024-03-23T10:04:40;4.05;;;0.73;;
72647;SDS011;60693;50.002;8.644;2024-03-23T10:07:25;6.30;;;1.13;;
72647;SDS011;60693;50.002;8.644;2024-03-23T10:10:10;3.10;;;0.47;;
72647;SDS011;60693;50.002;8.644;2024-03-23T10:12:54;2.92;;;0.60;;
72647;SDS011;60693;50.002;8.644;2024-03-23T10:15:39;5.18;;;0.60;;
72647;SDS011;60693;50.002;8.644;2024-03-23T10:18:23;7.03;;;0.85;;
72647;SDS011;60693;50.002;8.644;2024-03-23T10:21:09;3.45;;;0.50;;
72647;SDS011;60693;50.002;8.644;2024-03-23T10:23:54;3.35;;;0.55;;
72647;SDS011;60693;50.002;8.644;2024-03-23T10:26:39;4.63;;;0.70;;
72647;SDS011;60693;50.002;8.644;2024-03-23T10:29:23;2.45;;;0.40;;
72647;SDS011;60693;50.002;8.644;2024-03-23T10:32:10;4.25;;;0.73;;
72647;SDS011;60693;50.002;8.644;2024-03-23T10:34:55;2.97;;;0.43;;
72647;SDS011;60693;50.002;8.644;2024-03-23T10:37:39;2.85;;;0.50;;
72647;SDS011;60693;50.002;8.644;2024-03-23T10:40:24;2.05;;;0.40;;
72647;SDS011;60693;50.002;8.644;2024-03-23T10:43:09;6.20;;;2.15;;
72647;SDS011;60693;50.002;8.644;2024-03-23T10:45:53;8.68;;;0.82;;
72647;SDS011;60693;50.002;8.644;2024-03-23T10:48:37;3.85;;;0.43;;
72647;SDS011;60693;50.002;8.644;2024-03-23T10:51:21;9.60;;;0.63;;
72647;SDS011;60693;50.002;8.644;2024-03-23T10:54:06;7.07;;;0.55;;
72647;SDS011;60693;50.002;8.644;2024-03-23T10:56:56;3.92;;;0.52;;
72647;SDS011;60693;50.002;8.644;2024-03-23T10:59:44;2.53;;;0.50;;
72647;SDS011;60693;50.002;8.644;2024-03-23T11:02:28;2.70;;;0.45;;
72647;SDS011;60693;50.002;8.644;2024-03-23T11:05:47;2.33;;;0.35;;
72647;SDS011;60693;50.002;8.644;2024-03-23T11:08:30;1.85;;;0.40;;
72647;SDS011;60693;50.002;8.644;2024-03-23T11:11:24;2.00;;;0.22;;
72647;SDS011;60693;50.002;8.644;2024-03-23T11:14:12;3.53;;;0.33;;
72647;SDS011;60693;50.002;8.644;2024-03-23T11:17:08;2.80;;;0.30;;
72647;SDS011;60693;50.002;8.644;2024-03-23T11:19:53;2.05;;;0.43;;
72647;SDS011;60693;50.002;8.644;2024-03-23T11:22:42;1.58;;;0.28;;
72647;SDS011;60693;50.002;8.644;2024-03-23T11:25:28;1.88;;;0.40;;
72647;SDS011;60693;50.002;8.644;2024-03-23T11:28:13;3.07;;;0.57;;
72647;SDS011;60693;50.002;8.644;2024-03-23T11:30:58;3.35;;;0.57;;
72647;SDS011;60693;50.002;8.644;2024-03-23T11:33:43;1.52;;;0.30;;
72647;SDS011;60693;50.002;8.644;2024-03-23T11:36:28;6.93;;;1.77;;
72647;SDS011;60693;50.002;8.644;2024-03-23T11:39:16;6.65;;;2.13;;
72647;SDS011;60693;50.002;8.644;2024-03-23T11:42:01;1.77;;;0.33;;
72647;SDS011;60693;50.002;8.644;2024-03-23T11:44:45;2.88;;;0.52;;
72647;SDS011;60693;50.002;8.644;2024-03-23T11:47:31;2.10;;;0.40;;
72647;SDS011;60693;50.002;8.644;2024-03-23T11:50:21;1.55;;;0.40;;
72647;SDS011;60693;50.002;8.644;2024-03-23T11:55:56;1.90;;;0.40;;
72647;SDS011;60693;50.002;8.644;2024-03-23T11:58:40;2.65;;;0.38;;
72647;SDS011;60693;50.002;8.644;2024-03-23T12:01:25;1.75;;;0.35;;
72647;SDS011;60693;50.002;8.644;2024-03-23T12:04:09;2.33;;;0.68;;
72647;SDS011;60693;50.002;8.644;2024-03-23T12:07:12;2.20;;;0.52;;
72647;SDS011;60693;50.002;8.644;2024-03-23T12:10:04;4.65;;;1.17;;
72647;SDS011;60693;50.002;8.644;2024-03-23T12:13:00;7.35;;;0.70;;
72647;SDS011;60693;50.002;8.644;2024-03-23T12:15:45;5.85;;;1.27;;
72647;SDS011;60693;50.002;8.644;2024-03-23T12:18:29;7.03;;;1.25;;
72647;SDS011;60693;50.002;8.644;2024-03-23T12:21:14;5.93;;;1.10;;
72647;SDS011;60693;50.002;8.644;2024-03-23T12:23:58;3.97;;;0.70;;
72647;SDS011;60693;50.002;8.644;2024-03-23T12:26:42;4.38;;;0.60;;
72647;SDS011;60693;50.002;8.644;2024-03-23T12:29:28;5.32;;;0.88;;
72647;SDS011;60693;50.002;8.644;2024-03-23T12:32:13;4.55;;;0.82;;
72647;SDS011;60693;50.002;8.644;2024-03-23T12:34:58;6.85;;;0.98;;
72647;SDS011;60693;50.002;8.644;2024-03-23T12:37:43;5.47;;;1.05;;
72647;SDS011;60693;50.002;8.644;2024-03-23T12:40:27;6.13;;;0.98;;
72647;SDS011;60693;50.002;8.644;2024-03-23T12:43:11;4.45;;;0.65;;
72647;SDS011;60693;50.002;8.644;2024-03-23T12:45:55;4.82;;;0.98;;
72647;SDS011;60693;50.002;8.644;2024-03-23T12:48:39;3.90;;;0.70;;
72647;SDS011;60693;50.002;8.644;2024-03-23T12:51:25;5.53;;;0.80;;
72647;SDS011;60693;50.002;8.644;2024-03-23T12:54:10;7.43;;;0.82;;
72647;SDS011;60693;50.002;8.644;2024-03-23T12:56:54;3.22;;;0.50;;
72647;SDS011;60693;50.002;8.644;2024-03-23T12:59:38;4.60;;;0.90;;
72647;SDS011;60693;50.002;8.644;2024-03-23T13:02:22;3.50;;;0.63;;
72647;SDS011;60693;50.002;8.644;2024-03-23T13:05:06;2.70;;;0.40;;
72647;SDS011;60693;50.002;8.644;2024-03-23T13:07:52;3.40;;;0.35;;
72647;SDS011;60693;50.002;8.644;2024-03-23T13:10:36;3.55;;;0.45;;
72647;SDS011;60693;50.002;8.644;2024-03-23T13:13:20;3.35;;;0.60;;
72647;SDS011;60693;50.002;8.644;2024-03-23T13:16:04;2.10;;;0.60;;
72647;SDS011;60693;50.002;8.644;2024-03-23T13:18:49;1.80;;;0.30;;
72647;SDS011;60693;50.002;8.644;2024-03-23T13:21:33;2.13;;;0.32;;
72647;SDS011;60693;50.002;8.644;2024-03-23T13:24:17;1.55;;;0.40;;
72647;SDS011;60693;50.002;8.644;2024-03-23T13:27:01;2.08;;;0.30;;
72647;SDS011;60693;50.002;8.644;2024-03-23T13:29:46;1.00;;;0.20;;
72647;SDS011;60693;50.002;8.644;2024-03-23T13:32:30;3.10;;;0.40;;
72647;SDS011;60693;50.002;8.644;2024-03-23T13:35:15;1.10;;;0.20;;
72647;SDS011;60693;50.002;8.644;2024-03-23T13:37:59;1.52;;;0.20;;
72647;SDS011;60693;50.002;8.644;2024-03-23T13:40:50;1.30;;;0.30;;
72647;SDS011;60693;50.002;8.644;2024-03-23T13:43:34;19.10;;;4.88;;
72647;SDS011;60693;50.002;8.644;2024-03-23T13:46:19;5.47;;;1.23;;
72647;SDS011;60693;50.002;8.644;2024-03-23T13:49:03;2.63;;;0.40;;
72647;SDS011;60693;50.002;8.644;2024-03-23T13:51:48;2.53;;;0.32;;
72647;SDS011;60693;50.002;8.644;2024-03-23T13:54:32;1.77;;;0.30;;
72647;SDS011;60693;50.002;8.644;2024-03-23T13:57:16;2.33;;;0.40;;
72647;SDS011;60693;50.002;8.644;2024-03-23T14:00:01;3.88;;;0.47;;
72647;SDS011;60693;50.002;8.644;2024-03-23T14:02:45;1.60;;;0.30;;
72647;SDS011;60693;50.002;8.644;2024-03-23T14:05:29;2.65;;;0.40;;
72647;SDS011;60693;50.002;8.644;2024-03-23T14:08:14;3.83;;;0.50;;
72647;SDS011;60693;50.002;8.644;2024-03-23T14:10:58;5.18;;;0.40;;
72647;SDS011;60693;50.002;8.644;2024-03-23T14:13:43;2.20;;;0.40;;
72647;SDS011;60693;50.002;8.644;2024-03-23T14:16:27;1.35;;;0.32;;
72647;SDS011;60693;50.002;8.644;2024-03-23T14:19:11;15.27;;;5.75;;
72647;SDS011;60693;50.002;8.644;2024-03-23T14:21:55;3.03;;;0.77;;
72647;SDS011;60693;50.002;8.644;2024-03-23T14:24:40;2.00;;;0.30;;
72647;SDS011;60693;50.002;8.644;2024-03-23T14:27:24;2.10;;;0.40;;
72647;SDS011;60693;50.002;8.644;2024-03-23T14:30:09;2.78;;;0.40;;
72647;SDS011;60693;50.002;8.644;2024-03-23T14:32:53;1.45;;;0.30;;
72647;SDS011;60693;50.002;8.644;2024-03-23T14:35:38;1.80;;;0.40;;
72647;SDS011;60693;50.002;8.644;2024-03-23T14:38:22;3.05;;;0.50;;
72647;SDS011;60693;50.002;8.644;2024-03-23T14:41:08;1.92;;;0.35;;
72647;SDS011;60693;50.002;8.644;2024-03-23T14:43:52;1.98;;;0.30;;
72647;SDS011;60693;50.002;8.644;2024-03-23T14:46:38;4.70;;;0.60;;
72647;SDS011;60693;50.002;8.644;2024-03-23T14:49:22;3.15;;;0.60;;
72647;SDS011;60693;50.002;8.644;2024-03-23T14:52:06;4.00;;;0.57;;
72647;SDS011;60693;50.002;8.644;2024-03-23T14:54:53;5.38;;;1.00;;
72647;SDS011;60693;50.002;8.644;2024-03-23T14:57:37;2.95;;;0.50;;
72647;SDS011;60693;50.002;8.644;2024-03-23T15:00:25;2.80;;;0.40;;
72647;SDS011;60693;50.002;8.644;2024-03-23T15:03:09;4.45;;;0.55;;
72647;SDS011;60693;50.002;8.644;2024-03-23T15:05:54;2.67;;;0.60;;
72647;SDS011;60693;50.002;8.644;2024-03-23T15:08:39;3.50;;;0.60;;
72647;SDS011;60693;50.002;8.644;2024-03-23T15:11:24;3.65;;;0.68;;
72647;SDS011;60693;50.002;8.644;2024-03-23T15:14:08;2.45;;;0.50;;
72647;SDS011;60693;50.002;8.644;2024-03-23T15:16:54;2.10;;;0.40;;
72647;SDS011;60693;50.002;8.644;2024-03-23T15:19:39;3.22;;;0.75;;
72647;SDS011;60693;50.002;8.644;2024-03-23T15:22:23;2.42;;;0.60;;
72647;SDS011;60693;50.002;8.644;2024-03-23T15:25:08;3.92;;;0.40;;
72647;SDS011;60693;50.002;8.644;2024-03-23T15:27:51;3.22;;;0.50;;
72647;SDS011;60693;50.002;8.644;2024-03-23T15:30:37;2.53;;;0.50;;
72647;SDS011;60693;50.002;8.644;2024-03-23T15:33:21;1.75;;;0.40;;
72647;SDS011;60693;50.002;8.644;2024-03-23T15:36:05;2.22;;;0.50;;
72647;SDS011;60693;50.002;8.644;2024-03-23T15:38:49;2.25;;;0.40;;
72647;SDS011;60693;50.002;8.644;2024-03-23T15:41:34;2.28;;;0.38;;
72647;SDS011;60693;50.002;8.644;2024-03-23T15:44:19;1.42;;;0.20;;
72647;SDS011;60693;50.002;8.644;2024-03-23T15:47:04;2.78;;;0.32;;
72647;SDS011;60693;50.002;8.644;2024-03-23T15:49:48;1.58;;;0.40;;
72647;SDS011;60693;50.002;8.644;2024-03-23T15:52:34;1.95;;;0.30;;
72647;SDS011;60693;50.002;8.644;2024-03-23T15:55:19;1.45;;;0.30;;
72647;SDS011;60693;50.002;8.644;2024-03-23T15:58:04;1.52;;;0.30;;
72647;SDS011;60693;50.002;8.644;2024-03-23T16:01:01;0.95;;;0.20;;
72647;SDS011;60693;50.002;8.644;2024-03-23T16:03:45;1.23;;;0.20;;
72647;SDS011;60693;50.002;8.644;2024-03-23T16:06:30;2.05;;;0.43;;
72647;SDS011;60693;50.002;8.644;2024-03-23T16:09:14;3.45;;;0.35;;
72647;SDS011;60693;50.002;8.644;2024-03-23T16:11:58;8.18;;;2.15;;
72647;SDS011;60693;50.002;8.644;2024-03-23T16:14:43;4.28;;;0.80;;
72647;SDS011;60693;50.002;8.644;2024-03-23T16:17:27;2.77;;;0.40;;
72647;SDS011;60693;50.002;8.644;2024-03-23T16:20:11;1.95;;;0.43;;
72647;SDS011;60693;50.002;8.644;2024-03-23T16:22:56;1.42;;;0.40;;
72647;SDS011;60693;50.002;8.644;2024-03-23T16:25:46;2.78;;;0.40;;
72647;SDS011;60693;50.002;8.644;2024-03-23T16:28:39;0.95;;;0.20;;
72647;SDS011;60693;50.002;8.644;2024-03-23T16:31:25;2.30;;;0.43;;
72647;SDS011;60693;50.002;8.644;2024-03-23T16:34:08;1.75;;;0.43;;
72647;SDS011;60693;50.002;8.644;2024-03-23T16:36:53;1.38;;;0.30;;
72647;SDS011;60693;50.002;8.644;2024-03-23T16:39:37;2.13;;;0.40;;
72647;SDS011;60693;50.002;8.644;2024-03-23T16:42:22;2.65;;;0.40;;
72647;SDS011;60693;50.002;8.644;2024-03-23T16:45:06;1.30;;;0.30;;
72647;SDS011;60693;50.002;8.644;2024-03-23T16:47:52;2.63;;;0.30;;
72647;SDS011;60693;50.002;8.644;2024-03-23T16:50:36;4.10;;;0.40;;
72647;SDS011;60693;50.002;8.644;2024-03-23T16:53:20;1.60;;;0.30;;
72647;SDS011;60693;50.002;8.644;2024-03-23T16:56:05;1.80;;;0.28;;
72647;SDS011;60693;50.002;8.644;2024-03-23T16:58:53;1.48;;;0.30;;
72647;SDS011;60693;50.002;8.644;2024-03-23T17:01:37;2.20;;;0.50;;
72647;SDS011;60693;50.002;8.644;2024-03-23T17:04:22;1.42;;;0.22;;
72647;SDS011;60693;50.002;8.644;2024-03-23T17:07:06;1.20;;;0.30;;
72647;SDS011;60693;50.002;8.644;2024-03-23T17:09:51;1.48;;;0.20;;
72647;SDS011;60693;50.002;8.644;2024-03-23T17:12:35;1.33;;;0.32;;
72647;SDS011;60693;50.002;8.644;2024-03-23T17:15:19;1.80;;;0.40;;
72647;SDS011;60693;50.002;8.644;2024-03-23T17:18:05;1.77;;;0.30;;
72647;SDS011;60693;50.002;8.644;2024-03-23T17:20:50;1.85;;;0.40;;
72647;SDS011;60693;50.002;8.644;2024-03-23T17:23:34;1.58;;;0.20;;
72647;SDS011;60693;50.002;8.644;2024-03-23T17:26:19;1.90;;;0.40;;